createdAt,value
2023-02-22T00:04:49.856Z,100328.97
2023-02-22T00:09:51.173Z,100332.63
2023-02-22T00:14:52.554Z,100327.75
2023-02-22T00:19:54.180Z,100319.53
2023-02-22T00:24:57.189Z,100306.16
2023-02-22T00:29:58.799Z,100307.28
2023-02-22T00:35:00.147Z,100320.03
2023-02-22T00:40:01.734Z,100315.38
2023-02-22T00:45:05.170Z,100310.72
2023-02-22T00:50:06.754Z,100303.66
2023-02-22T00:55:10.298Z,100293.88
2023-02-22T01:00:19.913Z,100288.38
2023-02-22T01:05:23.869Z,100286.88
2023-02-22T01:10:28.513Z,100285.78
2023-02-22T01:15:30.672Z,100282.09
2023-02-22T01:20:32.828Z,100279.97
2023-02-22T01:25:35.079Z,100280.31
2023-02-22T01:30:37.115Z,100269.38
2023-02-22T01:35:40.966Z,100268.84
2023-02-22T01:40:43.979Z,100263.13
2023-02-22T01:45:57.857Z,100258.31
2023-02-22T01:51:11.356Z,100259.91
2023-02-22T01:56:13.770Z,100252.44
2023-02-22T02:01:18.412Z,100252.72
2023-02-22T02:06:20.547Z,100246.41
2023-02-22T02:11:25.527Z,100240.13
2023-02-22T02:16:36.957Z,100233.28
2023-02-22T02:21:56.867Z,100239.44
2023-02-22T02:27:18.895Z,100228.53
2023-02-22T02:32:44.671Z,100221.34
2023-02-22T02:38:12.648Z,100217.31
2023-02-22T02:43:29.346Z,100216.16
2023-02-22T02:48:34.145Z,100213.81
2023-02-22T02:53:39.233Z,100209.22
2023-02-22T02:58:49.575Z,100200.00
2023-02-22T03:04:15.201Z,100206.56
2023-02-22T03:09:44.005Z,100205.56
2023-02-22T03:15:05.208Z,100203.63
2023-02-22T03:20:21.634Z,100190.28
2023-02-22T03:25:33.806Z,100193.28
2023-02-22T03:30:39.354Z,100185.69
2023-02-22T03:35:48.122Z,100180.44
2023-02-22T03:40:54.301Z,100179.03
2023-02-22T03:45:56.801Z,100181.09
2023-02-22T03:50:58.484Z,100173.63
2023-02-22T03:56:01.968Z,100171.94
2023-02-22T04:01:03.886Z,100171.34
2023-02-22T04:06:05.621Z,100162.66
2023-02-22T04:11:06.982Z,100162.97
2023-02-22T04:16:08.401Z,100168.38
2023-02-22T04:21:09.738Z,100174.56
2023-02-22T04:26:11.128Z,100168.41
2023-02-22T04:31:12.456Z,100167.84
2023-02-22T04:36:15.901Z,100161.44
2023-02-22T04:41:18.906Z,100166.44
2023-02-22T04:46:20.429Z,100168.88
2023-02-22T04:51:21.776Z,100165.66
2023-02-22T04:56:23.400Z,100160.88
2023-02-22T05:01:24.704Z,100154.03
2023-02-22T05:06:26.017Z,100154.09
2023-02-22T05:11:27.622Z,100155.50
2023-02-22T05:16:28.988Z,100157.75
2023-02-22T05:21:30.396Z,100154.63
2023-02-22T05:26:31.712Z,100148.06
2023-02-22T05:31:33.172Z,100148.47
2023-02-22T05:36:34.918Z,100147.03
2023-02-22T05:41:36.307Z,100146.88
2023-02-22T05:46:37.650Z,100135.53
2023-02-22T05:51:39.176Z,100136.66
2023-02-22T05:56:40.658Z,100132.84
2023-02-22T06:01:42.129Z,100142.00
2023-02-22T06:06:43.583Z,100136.56
2023-02-22T06:11:45.263Z,100145.72
2023-02-22T06:16:52.879Z,100144.00
2023-02-22T06:21:56.755Z,100153.69
2023-02-22T06:27:01.081Z,100150.00
2023-02-22T06:32:02.553Z,100149.41
2023-02-22T06:37:03.946Z,100147.97
2023-02-22T06:42:05.770Z,100146.81
2023-02-22T06:47:07.235Z,100159.56
2023-02-22T06:52:09.672Z,100155.09
2023-02-22T06:57:11.244Z,100162.16
2023-02-22T07:02:13.265Z,100166.06
2023-02-22T07:07:14.569Z,100167.06
2023-02-22T07:12:16.037Z,100175.41
2023-02-22T07:17:17.425Z,100173.72
2023-02-22T07:27:36.772Z,100165.94
2023-02-22T07:32:38.583Z,100181.94
2023-02-22T07:37:40.351Z,100172.09
2023-02-22T07:42:59.929Z,100180.63
2023-02-22T07:48:04.338Z,100183.31
2023-02-22T07:53:11.676Z,100186.44
2023-02-22T07:58:32.640Z,100184.63
2023-02-22T08:03:36.668Z,100189.56
2023-02-22T08:08:38.504Z,100184.84
2023-02-22T08:13:47.899Z,100175.56
2023-02-22T08:18:51.082Z,100175.16
2023-02-22T08:23:54.415Z,100184.13
2023-02-22T08:28:57.292Z,100190.16
2023-02-22T08:34:01.086Z,100185.47
2023-02-22T08:39:02.690Z,100174.69
2023-02-22T08:44:09.993Z,100171.94
2023-02-22T08:54:27.926Z,100163.00
2023-02-22T08:59:29.314Z,100166.38
2023-02-22T09:04:30.651Z,100165.41
2023-02-22T09:09:31.991Z,100164.78
2023-02-22T09:14:33.957Z,100165.50
2023-02-22T09:19:35.263Z,100161.34
2023-02-22T09:24:36.706Z,100143.78
2023-02-22T09:29:39.318Z,100145.47
2023-02-22T09:34:45.739Z,100140.25
2023-02-22T09:39:47.116Z,100142.72
2023-02-22T09:55:57.630Z,100117.19
2023-02-22T10:01:42.637Z,100115.03
2023-02-22T10:07:01.381Z,100109.31
2023-02-22T10:12:12.977Z,100102.84
2023-02-22T10:17:34.061Z,100116.56
2023-02-22T10:22:50.453Z,100125.53
2023-02-22T10:28:01.300Z,100114.91
2023-02-22T10:33:15.924Z,100115.19
2023-02-22T10:38:20.884Z,100118.63
2023-02-22T10:48:51.212Z,100111.84
2023-02-22T11:04:30.114Z,100104.53
2023-02-22T11:09:50.582Z,100094.94
2023-02-22T11:14:51.939Z,100081.22
2023-02-22T11:19:53.417Z,100078.31
2023-02-22T11:25:07.378Z,100079.03
2023-02-22T11:30:25.506Z,100073.00
2023-02-22T11:35:35.294Z,100062.66
2023-02-22T11:40:36.668Z,100053.59
2023-02-22T11:45:44.212Z,100045.69
2023-02-22T11:51:06.352Z,100039.53
2023-02-22T11:56:17.322Z,100028.78
2023-02-22T12:01:59.943Z,100013.94
2023-02-22T12:07:10.609Z,100005.47
2023-02-22T12:23:20.617Z,100003.50
2023-02-22T12:55:11.959Z,99988.28
2023-02-22T13:00:23.157Z,99983.69
2023-02-22T13:05:24.685Z,99984.06
2023-02-22T13:10:36.915Z,99970.69
2023-02-22T13:16:00.243Z,99969.84
2023-02-22T15:33:24.069Z,99910.00
2023-02-22T15:38:30.309Z,99911.72
2023-02-22T15:43:32.594Z,99908.25
2023-02-22T15:48:35.616Z,99913.28
2023-02-22T15:53:46.015Z,99911.84
2023-02-22T15:58:48.242Z,99915.00
2023-02-22T16:04:20.157Z,99912.13
2023-02-22T16:09:29.411Z,99915.03
2023-02-22T16:14:37.544Z,99919.84
2023-02-22T16:19:42.755Z,99911.34
2023-02-22T16:24:44.574Z,99912.81
2023-02-22T16:30:25.695Z,99913.25
2023-02-22T16:35:29.140Z,99920.75
2023-02-22T17:01:35.134Z,99920.13
2023-02-22T17:06:36.770Z,99915.78
2023-02-22T17:11:38.763Z,99913.06
2023-02-22T17:16:40.197Z,99923.03
2023-02-22T17:21:41.589Z,99926.34
2023-02-22T17:26:43.061Z,99917.44
2023-02-22T17:31:44.964Z,99923.66
2023-02-22T17:36:46.496Z,99925.91
2023-02-22T17:41:54.942Z,99931.88
2023-02-22T17:46:56.329Z,99937.69
2023-02-22T17:51:57.997Z,99937.50
2023-02-22T17:57:00.320Z,99935.47
2023-02-22T18:02:03.096Z,99939.59
2023-02-22T18:07:04.613Z,99934.19
2023-02-22T18:12:06.017Z,99936.22
2023-02-22T18:17:07.866Z,99939.91
2023-02-22T18:22:09.188Z,99940.94
2023-02-22T18:27:11.808Z,99942.16
2023-02-22T18:32:13.662Z,99941.28
2023-02-22T18:37:20.320Z,99933.16
2023-02-22T18:42:30.843Z,99937.06
2023-02-22T18:47:38.235Z,99939.09
2023-02-22T18:52:46.022Z,99940.72
2023-02-22T18:57:48.789Z,99945.22
2023-02-22T19:02:50.540Z,99948.53
2023-02-22T19:07:51.970Z,99949.09
2023-02-22T19:12:53.315Z,99937.28
2023-02-22T19:17:55.727Z,99940.16
2023-02-22T19:22:57.130Z,99939.72
2023-02-22T19:27:58.461Z,99944.03
2023-02-22T19:33:02.480Z,99938.78
2023-02-22T19:38:04.160Z,99939.16
2023-02-22T19:43:05.497Z,99931.88
2023-02-22T19:48:06.972Z,99935.75
2023-02-22T19:53:13.882Z,99934.19
2023-02-22T19:58:15.350Z,99941.78
2023-02-22T20:03:23.338Z,99940.22
2023-02-22T20:08:26.191Z,99945.56
2023-02-22T20:13:27.890Z,99944.66
2023-02-22T20:18:30.149Z,99954.97
2023-02-22T20:23:31.539Z,99945.44
2023-02-22T20:28:34.059Z,99949.34
2023-02-22T20:33:35.431Z,99953.44
2023-02-22T20:38:37.813Z,99954.41
2023-02-22T20:43:39.723Z,99958.50
2023-02-22T20:48:41.144Z,99959.44
2023-02-22T20:53:44.798Z,99962.50
2023-02-22T20:58:46.753Z,99963.91
2023-02-22T21:03:48.698Z,99965.88
2023-02-22T21:08:56.932Z,99964.31
2023-02-22T21:13:59.870Z,99966.06
2023-02-22T21:19:04.106Z,99972.47
2023-02-22T21:24:05.821Z,99976.16
2023-02-22T21:29:07.226Z,99978.41
2023-02-22T21:34:12.864Z,99968.69
2023-02-22T21:39:18.222Z,99967.19
2023-02-22T21:44:20.606Z,99970.91
2023-02-22T21:49:23.053Z,99975.06
2023-02-22T21:54:24.490Z,99970.72
2023-02-22T21:59:25.923Z,99967.84
2023-02-22T22:04:31.832Z,99968.31
2023-02-22T22:09:35.325Z,99964.59
2023-02-22T22:14:37.827Z,99957.16
2023-02-22T22:19:39.575Z,99954.28
2023-02-22T22:24:45.857Z,99953.94
2023-02-22T22:29:47.235Z,99955.50
2023-02-22T22:34:49.263Z,99954.88
2023-02-22T22:39:50.594Z,99955.81
2023-02-22T22:44:51.955Z,99954.88
2023-02-22T22:49:59.509Z,99953.72
2023-02-22T22:55:01.322Z,99955.00
2023-02-22T23:00:22.659Z,99948.22
2023-02-22T23:05:28.618Z,99955.75
2023-02-22T23:10:31.834Z,99957.22
2023-02-22T23:15:33.154Z,99959.16
2023-02-22T23:20:38.789Z,99955.88
2023-02-22T23:25:41.589Z,99958.03
2023-02-22T23:30:43.795Z,99961.19
2023-02-22T23:35:48.644Z,99957.28
2023-02-22T23:40:53.849Z,99951.53
2023-02-22T23:45:57.099Z,99955.91
2023-02-22T23:51:01.029Z,99948.50
2023-02-22T23:56:02.339Z,99949.41
